createdAt,value
2023-05-02T00:00:23.963Z,10.26
2023-05-02T00:04:11.172Z,10.25
2023-05-02T00:07:38.681Z,10.23
2023-05-02T00:11:06.654Z,10.23
2023-05-02T00:14:33.468Z,10.24
2023-05-02T00:18:00.567Z,10.23
2023-05-02T00:21:29.344Z,10.23
2023-05-02T00:25:00.215Z,10.23
2023-05-02T00:28:27.714Z,10.23
2023-05-02T00:31:54.599Z,10.24
2023-05-02T00:35:21.971Z,10.25
2023-05-02T00:38:49.009Z,10.26
2023-05-02T00:42:16.398Z,10.28
2023-05-02T00:45:46.285Z,10.29
2023-05-02T00:49:13.302Z,10.31
2023-05-02T00:52:40.833Z,10.33
2023-05-02T00:56:10.352Z,10.35
2023-05-02T00:59:38.997Z,10.38
2023-05-02T01:03:14.194Z,10.40
2023-05-02T01:07:03.685Z,10.43
2023-05-02T01:10:42.439Z,10.47
2023-05-02T01:14:12.717Z,10.51
2023-05-02T01:17:40.899Z,10.55
2023-05-02T01:21:11.182Z,10.60
2023-05-02T01:24:46.691Z,10.64
2023-05-02T01:28:23.175Z,10.69
2023-05-02T01:31:52.512Z,10.74
2023-05-02T01:35:22.517Z,10.79
2023-05-02T01:38:48.888Z,10.84
2023-05-02T01:42:18.853Z,10.88
2023-05-02T01:45:48.483Z,10.91
2023-05-02T01:49:15.988Z,10.94
2023-05-02T01:52:43.803Z,10.97
2023-05-02T01:56:11.298Z,10.99
2023-05-02T01:59:41.790Z,11.01
2023-05-02T02:03:10.542Z,11.03
2023-05-02T02:06:38.015Z,11.03
2023-05-02T02:10:05.990Z,11.03
2023-05-02T02:13:36.858Z,11.04
2023-05-02T02:17:07.264Z,11.07
2023-05-02T02:20:36.256Z,11.11
2023-05-02T02:24:06.592Z,11.16
2023-05-02T02:27:33.634Z,11.21
2023-05-02T02:31:01.109Z,11.25
2023-05-02T02:34:28.482Z,11.27
2023-05-02T02:38:09.839Z,11.27
2023-05-02T02:41:45.913Z,11.28
2023-05-02T02:45:24.664Z,11.28
2023-05-02T02:48:58.822Z,11.27
2023-05-02T02:52:34.270Z,11.25
2023-05-02T02:56:06.569Z,11.24
2023-05-02T02:59:36.546Z,11.24
2023-05-02T03:03:03.569Z,11.21
2023-05-02T03:06:30.977Z,11.18
2023-05-02T03:09:58.397Z,11.16
2023-05-02T03:13:25.815Z,11.14
2023-05-02T03:16:53.058Z,11.12
2023-05-02T03:20:20.531Z,11.11
2023-05-02T03:23:47.909Z,11.10
2023-05-02T03:27:15.942Z,11.09
2023-05-02T03:30:43.356Z,11.06
2023-05-02T03:34:10.256Z,11.02
2023-05-02T03:37:38.260Z,10.98
2023-05-02T03:41:05.865Z,10.95
2023-05-02T03:44:33.012Z,10.92
2023-05-02T03:48:00.246Z,10.91
2023-05-02T03:51:28.156Z,10.92
2023-05-02T03:54:55.557Z,10.93
2023-05-02T03:58:22.649Z,10.95
2023-05-02T04:01:53.021Z,10.96
2023-05-02T04:05:25.615Z,10.97
2023-05-02T04:08:52.778Z,10.99
2023-05-02T04:12:21.246Z,11.02
2023-05-02T04:15:49.085Z,11.05
2023-05-02T04:19:20.064Z,11.09
2023-05-02T04:22:48.046Z,11.13
2023-05-02T04:26:16.396Z,11.15
2023-05-02T04:29:55.536Z,11.17
2023-05-02T04:33:22.771Z,11.17
2023-05-02T04:36:50.395Z,11.19
2023-05-02T04:40:21.698Z,11.20
2023-05-02T04:43:52.247Z,11.20
2023-05-02T04:47:19.719Z,11.18
2023-05-02T04:50:48.152Z,11.18
2023-05-02T04:54:15.888Z,11.18
2023-05-02T04:57:43.546Z,11.19
2023-05-02T05:01:14.154Z,11.21
2023-05-02T05:04:41.793Z,11.25
2023-05-02T05:08:09.757Z,11.29
2023-05-02T05:11:39.400Z,11.34
2023-05-02T05:15:08.658Z,11.37
2023-05-02T05:18:40.681Z,11.41
2023-05-02T05:22:10.624Z,11.46
2023-05-02T05:25:37.773Z,11.50
2023-05-02T05:29:04.856Z,11.57
2023-05-02T05:32:38.175Z,11.66
2023-05-02T05:36:10.811Z,11.74
2023-05-02T05:39:38.054Z,11.84
2023-05-02T05:43:06.038Z,11.95
2023-05-02T05:46:36.292Z,12.09
2023-05-02T05:50:05.397Z,12.22
2023-05-02T05:53:32.626Z,12.33
2023-05-02T05:57:01.583Z,12.46
2023-05-02T06:00:29.063Z,12.64
2023-05-02T06:03:56.400Z,12.82
2023-05-02T06:07:23.391Z,12.98
2023-05-02T06:10:50.391Z,13.19
2023-05-02T06:14:18.004Z,13.39
2023-05-02T06:17:47.342Z,13.57
2023-05-02T06:21:15.951Z,13.75
2023-05-02T06:24:43.020Z,14.02
2023-05-02T06:28:10.235Z,14.38
2023-05-02T06:31:37.384Z,14.75
2023-05-02T06:35:04.936Z,15.11
2023-05-02T06:38:32.508Z,15.44
2023-05-02T06:42:01.490Z,15.76
2023-05-02T06:45:27.954Z,16.15
2023-05-02T06:48:54.864Z,16.53
2023-05-02T06:52:21.919Z,16.77
2023-05-02T06:55:49.827Z,16.97
2023-05-02T06:59:17.778Z,17.20
2023-05-02T07:02:45.490Z,17.33
2023-05-02T07:06:12.595Z,17.54
2023-05-02T07:09:39.660Z,17.75
2023-05-02T07:13:06.625Z,17.81
2023-05-02T07:16:34.067Z,17.87
2023-05-02T07:20:01.428Z,17.92
2023-05-02T07:23:28.968Z,17.91
2023-05-02T07:26:55.931Z,17.85
2023-05-02T07:30:22.820Z,17.89
2023-05-02T07:33:49.615Z,18.07
2023-05-02T07:37:16.719Z,18.24
2023-05-02T07:40:43.705Z,18.22
2023-05-02T07:44:10.634Z,18.13
2023-05-02T07:47:37.793Z,18.10
2023-05-02T07:51:11.528Z,18.18
2023-05-02T07:54:38.781Z,18.28
2023-05-02T07:58:05.538Z,18.36
2023-05-02T08:01:32.400Z,18.47
2023-05-02T08:04:59.588Z,18.58
2023-05-02T08:08:26.789Z,18.63
2023-05-02T08:11:53.787Z,18.61
2023-05-02T08:15:21.019Z,18.58
2023-05-02T08:18:47.976Z,18.50
2023-05-02T08:22:15.198Z,18.43
2023-05-02T08:25:42.396Z,18.42
2023-05-02T08:29:11.650Z,18.45
2023-05-02T08:32:39.450Z,18.44
2023-05-02T08:36:16.317Z,18.49
2023-05-02T08:39:43.420Z,18.58
2023-05-02T08:43:11.922Z,18.67
2023-05-02T08:46:42.594Z,18.82
2023-05-02T08:50:12.153Z,18.95
2023-05-02T08:53:40.559Z,19.00
2023-05-02T08:57:08.936Z,19.06
2023-05-02T09:00:39.144Z,19.20
2023-05-02T09:04:06.467Z,19.36
2023-05-02T09:07:42.730Z,19.51
2023-05-02T09:11:11.588Z,19.68
2023-05-02T09:14:38.775Z,19.82
2023-05-02T09:18:06.029Z,19.90
2023-05-02T09:21:41.451Z,19.95
2023-05-02T09:25:09.908Z,19.97
2023-05-02T09:28:45.375Z,20.02
2023-05-02T09:32:12.299Z,20.05
2023-05-02T09:35:54.559Z,20.09
2023-05-02T09:39:25.940Z,20.13
2023-05-02T09:42:53.561Z,20.15
2023-05-02T09:46:20.672Z,20.19
2023-05-02T09:49:49.799Z,20.21
2023-05-02T09:53:16.747Z,20.27
2023-05-02T09:56:57.410Z,20.32
2023-05-02T10:00:25.001Z,20.38
2023-05-02T10:03:52.428Z,20.42
2023-05-02T10:07:20.541Z,20.47
2023-05-02T10:10:51.501Z,20.56
2023-05-02T10:14:21.015Z,20.68
2023-05-02T10:17:51.676Z,20.83
2023-05-02T10:21:27.444Z,20.92
2023-05-02T10:24:56.239Z,20.99
2023-05-02T10:28:24.165Z,21.05
2023-05-02T10:31:52.943Z,21.16
2023-05-02T10:35:20.413Z,21.29
2023-05-02T10:38:48.669Z,21.27
2023-05-02T10:42:18.311Z,21.37
2023-05-02T10:45:43.921Z,21.46
2023-05-02T10:49:12.650Z,21.52
2023-05-02T10:52:41.441Z,21.56
2023-05-02T10:56:15.494Z,21.60
2023-05-02T10:59:43.721Z,21.70
2023-05-02T11:03:10.747Z,21.80
2023-05-02T11:06:59.120Z,21.81
2023-05-02T11:10:30.683Z,21.82
2023-05-02T11:13:57.615Z,21.82
2023-05-02T11:17:25.241Z,21.87
2023-05-02T11:20:52.301Z,21.93
2023-05-02T11:24:40.324Z,22.01
2023-05-02T11:28:29.755Z,22.14
2023-05-02T11:31:58.255Z,22.31
2023-05-02T11:35:27.454Z,22.50
2023-05-02T11:38:55.525Z,22.60
2023-05-02T11:42:33.522Z,22.60
2023-05-02T11:46:03.108Z,22.65
2023-05-02T11:49:32.493Z,22.71
2023-05-02T11:53:00.058Z,22.74
2023-05-02T11:56:28.353Z,22.66
2023-05-02T11:59:57.221Z,22.54
2023-05-02T12:03:31.399Z,22.47
2023-05-02T12:07:00.971Z,22.36
2023-05-02T12:10:38.610Z,22.25
2023-05-02T12:14:07.155Z,22.14
2023-05-02T12:17:36.700Z,22.10
2023-05-02T12:21:04.541Z,21.94
2023-05-02T12:24:32.088Z,21.77
2023-05-02T12:28:06.034Z,21.63
2023-05-02T12:31:33.437Z,21.47
2023-05-02T12:35:01.706Z,21.40
2023-05-02T12:38:29.741Z,21.36
2023-05-02T12:41:56.734Z,21.23
2023-05-02T12:45:23.985Z,21.16
2023-05-02T12:49:05.643Z,21.12
2023-05-02T12:52:57.769Z,20.94
2023-05-02T12:56:27.758Z,20.68
2023-05-02T12:59:56.554Z,20.35
2023-05-02T13:03:24.622Z,20.09
2023-05-02T13:06:52.584Z,20.10
2023-05-02T13:10:20.043Z,19.99
2023-05-02T13:13:47.024Z,19.74
2023-05-02T13:17:14.780Z,19.67
2023-05-02T13:20:41.694Z,19.60
2023-05-02T13:24:09.357Z,19.63
2023-05-02T13:27:36.350Z,19.60
2023-05-02T13:31:03.746Z,19.53
2023-05-02T13:34:31.147Z,19.44
2023-05-02T13:37:58.018Z,19.41
2023-05-02T13:41:25.311Z,19.35
2023-05-02T13:44:52.255Z,19.41
2023-05-02T13:48:19.294Z,19.50
2023-05-02T13:51:46.478Z,19.51
2023-05-02T13:55:13.884Z,19.49
2023-05-02T13:58:40.872Z,19.39
2023-05-02T14:02:08.432Z,19.21
2023-05-02T14:05:36.891Z,19.11
2023-05-02T14:09:04.096Z,19.05
2023-05-02T14:12:31.712Z,18.98
2023-05-02T14:15:59.447Z,18.65
2023-05-02T14:19:26.466Z,18.46
2023-05-02T14:22:53.545Z,18.17
2023-05-02T14:26:20.938Z,17.84
2023-05-02T14:29:48.660Z,17.60
2023-05-02T14:33:15.684Z,17.46
2023-05-02T14:36:42.960Z,17.40
2023-05-02T14:40:12.706Z,17.44
2023-05-02T14:43:39.688Z,17.46
2023-05-02T14:47:06.720Z,17.48
2023-05-02T14:50:33.991Z,17.55
2023-05-02T14:54:01.666Z,17.55
2023-05-02T14:57:28.828Z,17.60
2023-05-02T15:00:55.963Z,17.60
2023-05-02T15:04:24.155Z,17.68
2023-05-02T15:07:51.442Z,17.74
2023-05-02T15:11:18.744Z,17.54
2023-05-02T15:14:45.730Z,17.37
2023-05-02T15:18:13.042Z,17.30
2023-05-02T15:21:40.196Z,17.21
2023-05-02T15:25:08.709Z,17.23
2023-05-02T15:28:35.894Z,17.22
2023-05-02T15:32:03.144Z,17.05
2023-05-02T15:35:31.505Z,17.00
2023-05-02T15:38:58.370Z,17.02
2023-05-02T15:42:25.271Z,16.95
2023-05-02T15:45:55.850Z,16.97
2023-05-02T15:49:24.498Z,17.03
2023-05-02T15:52:51.619Z,16.80
2023-05-02T15:56:18.876Z,16.68
2023-05-02T15:59:45.718Z,16.62
2023-05-02T16:03:13.289Z,16.55
2023-05-02T16:06:41.626Z,16.58
2023-05-02T16:10:10.993Z,16.50
2023-05-02T16:13:38.742Z,16.24
2023-05-02T16:17:05.808Z,16.00
2023-05-02T16:20:36.645Z,15.79
2023-05-02T16:24:03.993Z,15.60
2023-05-02T16:27:30.983Z,15.41
2023-05-02T16:30:58.200Z,15.27
2023-05-02T16:34:25.885Z,15.15
2023-05-02T16:37:52.922Z,15.05
2023-05-02T16:41:19.946Z,14.98
2023-05-02T16:44:46.969Z,14.87
2023-05-02T16:48:15.981Z,14.75
2023-05-02T16:55:26.149Z,14.64
2023-05-02T16:58:54.229Z,14.58
2023-05-02T17:02:22.709Z,14.49
2023-05-02T17:05:52.407Z,14.37
2023-05-02T17:09:20.642Z,14.27
2023-05-02T17:12:48.880Z,14.20
2023-05-02T17:16:17.989Z,14.12
2023-05-02T17:19:46.283Z,14.04
2023-05-02T17:23:15.037Z,13.98
2023-05-02T17:26:44.783Z,13.93
2023-05-02T17:30:20.149Z,13.85
2023-05-02T17:33:50.643Z,13.78
2023-05-02T17:37:20.771Z,13.68
2023-05-02T17:40:48.902Z,13.57
2023-05-02T17:44:17.956Z,13.46
2023-05-02T17:47:46.538Z,13.39
2023-05-02T17:51:14.795Z,13.36
2023-05-02T17:54:44.102Z,13.32
2023-05-02T17:58:14.046Z,13.28
2023-05-02T18:01:42.490Z,13.21
2023-05-02T18:05:12.392Z,13.16
2023-05-02T18:08:39.532Z,13.10
2023-05-02T18:12:07.062Z,13.04
2023-05-02T18:15:35.108Z,12.96
2023-05-02T18:19:03.014Z,12.87
2023-05-02T18:22:30.258Z,12.77
2023-05-02T18:25:58.213Z,12.64
2023-05-02T18:29:26.861Z,12.50
2023-05-02T18:32:53.832Z,12.35
2023-05-02T18:36:27.299Z,12.22
2023-05-02T18:39:56.350Z,12.09
2023-05-02T18:43:25.167Z,11.95
2023-05-02T18:46:52.333Z,11.81
2023-05-02T18:50:19.818Z,11.68
2023-05-02T18:53:49.122Z,11.57
2023-05-02T18:57:17.093Z,11.44
2023-05-02T19:00:44.413Z,11.36
2023-05-02T19:04:11.868Z,11.30
2023-05-02T19:07:39.176Z,11.25
2023-05-02T19:11:06.900Z,11.21
2023-05-02T19:14:36.997Z,11.15
2023-05-02T19:18:04.067Z,11.08
2023-05-02T19:21:31.964Z,11.01
2023-05-02T19:24:59.822Z,10.96
2023-05-02T19:28:27.395Z,10.91
2023-05-02T19:31:54.518Z,10.86
2023-05-02T19:35:22.002Z,10.81
2023-05-02T19:38:51.186Z,10.75
2023-05-02T19:42:18.374Z,10.67
2023-05-02T19:45:45.856Z,10.59
2023-05-02T19:49:13.091Z,10.53
2023-05-02T19:52:41.825Z,10.49
2023-05-02T19:56:09.425Z,10.45
2023-05-02T19:59:36.518Z,10.41
2023-05-02T20:03:03.685Z,10.36
2023-05-02T20:06:32.085Z,10.33
2023-05-02T20:09:59.392Z,10.30
2023-05-02T20:13:27.287Z,10.27
2023-05-02T20:17:01.812Z,10.22
2023-05-02T20:20:29.110Z,10.13
2023-05-02T20:23:56.064Z,10.05
2023-05-02T20:27:22.970Z,9.96
2023-05-02T20:30:49.988Z,9.85
2023-05-02T20:34:16.992Z,9.74
2023-05-02T20:37:44.092Z,9.64
2023-05-02T20:41:13.031Z,9.55
2023-05-02T20:44:39.938Z,9.46
2023-05-02T20:48:07.267Z,9.39
2023-05-02T20:51:34.269Z,9.35
2023-05-02T20:55:01.792Z,9.34
2023-05-02T20:58:28.788Z,9.35
2023-05-02T21:01:55.969Z,9.36
2023-05-02T21:05:23.404Z,9.38
2023-05-02T21:08:50.483Z,9.41
2023-05-02T21:12:17.707Z,9.44
2023-05-02T21:15:44.824Z,9.47
2023-05-02T21:19:12.065Z,9.49
2023-05-02T21:22:39.562Z,9.50
2023-05-02T21:26:07.510Z,9.51
2023-05-02T21:29:34.546Z,9.51
2023-05-02T21:33:01.747Z,9.51
2023-05-02T21:36:28.985Z,9.49
2023-05-02T21:39:56.031Z,9.46
2023-05-02T21:43:23.087Z,9.44
2023-05-02T21:46:51.872Z,9.42
2023-05-02T21:50:19.046Z,9.40
2023-05-02T21:53:45.913Z,9.37
2023-05-02T21:57:12.888Z,9.33
2023-05-02T22:00:41.593Z,9.28
2023-05-02T22:04:08.721Z,9.20
2023-05-02T22:07:35.538Z,9.14
2023-05-02T22:11:06.620Z,9.08
2023-05-02T22:14:41.719Z,9.01
2023-05-02T22:18:11.832Z,8.97
2023-05-02T22:21:38.848Z,8.94
2023-05-02T22:25:06.140Z,8.90
2023-05-02T22:28:32.929Z,8.87
2023-05-02T22:31:59.883Z,8.84
2023-05-02T22:35:27.551Z,8.82
2023-05-02T22:38:54.850Z,8.78
2023-05-02T22:42:21.742Z,8.73
2023-05-02T22:45:51.372Z,8.69
2023-05-02T22:49:19.794Z,8.65
2023-05-02T22:52:47.010Z,8.62
2023-05-02T22:56:14.216Z,8.58
2023-05-02T22:59:41.102Z,8.54
2023-05-02T23:03:08.507Z,8.51
2023-05-02T23:06:36.109Z,8.48
2023-05-02T23:10:03.774Z,8.45
2023-05-02T23:13:30.947Z,8.41
2023-05-02T23:16:58.393Z,8.38
2023-05-02T23:20:25.418Z,8.36
2023-05-02T23:23:52.537Z,8.33
2023-05-02T23:27:19.300Z,8.33
2023-05-02T23:30:46.551Z,8.33
2023-05-02T23:34:13.842Z,8.33
2023-05-02T23:37:41.317Z,8.34
2023-05-02T23:41:08.610Z,8.34
2023-05-02T23:44:35.408Z,8.33
2023-05-02T23:48:02.365Z,8.31
2023-05-02T23:51:29.489Z,8.28
2023-05-02T23:54:56.511Z,8.24
2023-05-02T23:58:23.285Z,8.19
